createdAt,value
2017-07-03T00:00:45.832Z,16.80
2017-07-03T00:03:12.015Z,16.90
2017-07-03T00:05:38.188Z,16.80
2017-07-03T00:08:04.423Z,16.80
2017-07-03T00:10:30.565Z,16.90
2017-07-03T00:12:56.755Z,17.00
2017-07-03T00:15:23.312Z,17.10
2017-07-03T00:17:49.513Z,17.00
2017-07-03T00:20:16.423Z,17.00
2017-07-03T00:22:42.600Z,17.00
2017-07-03T00:25:08.811Z,17.00
2017-07-03T00:27:35.744Z,17.00
2017-07-03T00:30:01.936Z,17.00
2017-07-03T00:32:28.115Z,17.00
2017-07-03T00:34:55.054Z,16.90
2017-07-03T00:37:21.223Z,16.90
2017-07-03T00:39:47.440Z,16.90
2017-07-03T00:42:13.611Z,16.90
2017-07-03T00:44:39.812Z,16.90
2017-07-03T00:47:05.975Z,17.00
2017-07-03T00:49:32.120Z,17.00
2017-07-03T00:51:58.302Z,17.10
2017-07-03T00:54:24.448Z,17.00
2017-07-03T00:56:50.620Z,16.90
2017-07-03T00:59:17.605Z,16.90
2017-07-03T01:01:43.787Z,16.90
2017-07-03T01:04:10.727Z,17.00
2017-07-03T01:06:36.951Z,17.10
2017-07-03T01:09:03.167Z,17.00
2017-07-03T01:11:29.306Z,17.00
2017-07-03T01:13:55.489Z,16.80
2017-07-03T01:16:21.655Z,16.70
2017-07-03T01:18:47.886Z,16.60
2017-07-03T01:21:14.043Z,16.60
2017-07-03T01:23:40.994Z,16.50
2017-07-03T01:26:07.176Z,16.40
2017-07-03T01:28:33.380Z,16.40
2017-07-03T01:30:59.579Z,16.40
2017-07-03T01:33:25.778Z,16.40
2017-07-03T01:35:51.975Z,16.40
2017-07-03T01:38:18.147Z,16.40
2017-07-03T01:40:45.066Z,16.30
2017-07-03T01:43:11.642Z,16.20
2017-07-03T01:45:37.834Z,16.30
2017-07-03T01:48:04.031Z,16.20
2017-07-03T01:50:30.262Z,16.20
2017-07-03T01:52:56.434Z,16.20
2017-07-03T01:55:22.669Z,16.10
2017-07-03T01:57:48.882Z,16.10
2017-07-03T02:00:15.058Z,16.10
2017-07-03T02:02:41.248Z,16.10
2017-07-03T02:05:07.440Z,16.00
2017-07-03T02:07:33.636Z,16.10
2017-07-03T02:09:59.827Z,16.10
2017-07-03T02:12:26.031Z,16.10
2017-07-03T02:14:52.201Z,16.10
2017-07-03T02:17:19.124Z,16.20
2017-07-03T02:19:45.308Z,16.20
2017-07-03T02:22:11.470Z,16.20
2017-07-03T02:24:37.639Z,16.40
2017-07-03T02:27:03.834Z,16.50
2017-07-03T02:29:29.987Z,16.50
2017-07-03T02:31:56.902Z,16.50
2017-07-03T02:34:23.107Z,16.50
2017-07-03T02:36:49.294Z,16.70
2017-07-03T02:39:16.223Z,16.00
2017-07-03T02:41:42.374Z,16.00
2017-07-03T02:44:08.561Z,15.80
2017-07-03T02:46:34.750Z,15.70
2017-07-03T02:49:00.936Z,15.80
2017-07-03T02:51:27.844Z,15.70
2017-07-03T02:53:54.037Z,15.60
2017-07-03T02:56:20.247Z,15.50
2017-07-03T02:58:47.143Z,15.40
2017-07-03T03:01:13.323Z,15.30
2017-07-03T03:03:40.230Z,15.20
2017-07-03T03:06:06.415Z,15.20
2017-07-03T03:08:32.619Z,15.20
2017-07-03T03:10:59.551Z,15.30
2017-07-03T03:13:25.703Z,15.30
2017-07-03T03:15:51.905Z,15.40
2017-07-03T03:18:18.066Z,15.10
2017-07-03T03:20:44.242Z,15.10
2017-07-03T03:23:10.405Z,15.10
2017-07-03T03:25:37.360Z,15.10
2017-07-03T03:28:03.562Z,15.20
2017-07-03T03:30:29.735Z,15.20
2017-07-03T03:32:55.915Z,15.30
2017-07-03T03:35:22.087Z,15.40
2017-07-03T03:37:48.234Z,15.50
2017-07-03T03:40:29.325Z,15.60
2017-07-03T03:42:55.522Z,15.80
2017-07-03T03:45:21.730Z,15.80
2017-07-03T03:47:48.649Z,15.80
2017-07-03T03:50:14.820Z,15.80
2017-07-03T03:52:41.009Z,15.70
2017-07-03T03:55:07.180Z,15.80
2017-07-03T03:57:33.401Z,15.70
2017-07-03T03:59:59.567Z,15.70
2017-07-03T04:02:25.774Z,16.00
2017-07-03T04:04:51.923Z,15.60
2017-07-03T04:07:18.116Z,15.60
2017-07-03T04:09:44.784Z,15.60
2017-07-03T04:12:11.027Z,15.60
2017-07-03T04:14:37.195Z,15.60
2017-07-03T04:17:04.113Z,15.60
2017-07-03T04:19:30.279Z,15.60
2017-07-03T04:21:56.496Z,15.60
2017-07-03T04:24:23.413Z,15.70
2017-07-03T04:26:50.330Z,15.80
2017-07-03T04:29:16.488Z,15.70
2017-07-03T04:31:42.653Z,16.00
2017-07-03T04:34:08.814Z,16.20
2017-07-03T04:36:35.003Z,16.40
2017-07-03T04:39:01.198Z,16.60
2017-07-03T04:41:27.395Z,16.70
2017-07-03T04:43:53.561Z,16.80
2017-07-03T04:46:19.766Z,16.80
2017-07-03T04:48:45.933Z,17.00
2017-07-03T04:51:12.894Z,17.20
2017-07-03T04:53:39.071Z,17.10
2017-07-03T04:56:05.231Z,17.30
2017-07-03T04:58:32.156Z,17.50
2017-07-03T05:00:58.363Z,17.50
2017-07-03T05:03:24.595Z,17.60
2017-07-03T05:05:50.802Z,17.70
2017-07-03T05:08:16.962Z,18.00
2017-07-03T05:10:43.177Z,18.20
2017-07-03T05:13:09.362Z,18.20
2017-07-03T05:15:35.536Z,18.30
2017-07-03T05:18:01.694Z,18.60
2017-07-03T05:20:28.774Z,18.70
2017-07-03T05:22:54.923Z,18.70
2017-07-03T05:25:21.054Z,18.80
2017-07-03T05:27:47.259Z,19.00
2017-07-03T05:30:13.484Z,19.10
2017-07-03T05:32:39.696Z,19.40
2017-07-03T05:35:06.672Z,19.40
2017-07-03T05:37:32.819Z,19.30
2017-07-03T05:39:59.042Z,19.30
2017-07-03T05:42:25.241Z,19.40
2017-07-03T05:44:51.416Z,19.50
2017-07-03T05:47:17.636Z,19.70
2017-07-03T05:49:43.811Z,19.80
2017-07-03T05:52:10.772Z,20.30
2017-07-03T05:54:36.939Z,20.30
2017-07-03T05:57:03.133Z,20.50
2017-07-03T05:59:29.322Z,20.70
2017-07-03T06:01:55.520Z,20.70
2017-07-03T06:04:21.694Z,20.50
2017-07-03T06:06:48.633Z,20.00
2017-07-03T06:09:15.572Z,19.50
2017-07-03T06:11:41.809Z,19.40
2017-07-03T06:14:08.724Z,19.30
2017-07-03T06:16:34.931Z,19.30
2017-07-03T06:19:01.145Z,19.30
2017-07-03T06:21:27.308Z,19.20
2017-07-03T06:23:53.517Z,19.20
2017-07-03T06:26:20.545Z,19.10
2017-07-03T06:28:46.836Z,19.10
2017-07-03T06:31:13.469Z,19.00
2017-07-03T06:33:39.862Z,19.00
2017-07-03T06:36:06.036Z,19.10
2017-07-03T06:38:32.239Z,19.10
2017-07-03T06:40:58.522Z,19.00
2017-07-03T06:43:24.705Z,18.90
2017-07-03T06:45:51.788Z,18.90
2017-07-03T06:48:18.715Z,18.80
2017-07-03T06:50:44.915Z,18.80
2017-07-03T06:53:11.086Z,18.70
2017-07-03T06:55:37.984Z,18.60
2017-07-03T06:58:04.173Z,18.60
2017-07-03T07:00:30.342Z,18.40
2017-07-03T07:02:56.515Z,18.40
2017-07-03T07:05:23.462Z,18.40
2017-07-03T07:07:50.435Z,18.40
2017-07-03T07:10:16.619Z,18.80
2017-07-03T07:12:42.808Z,18.50
2017-07-03T07:15:08.993Z,18.70
2017-07-03T07:17:35.898Z,18.90
2017-07-03T07:20:02.111Z,18.90
2017-07-03T07:22:28.263Z,18.90
2017-07-03T07:24:54.451Z,18.90
2017-07-03T07:27:20.642Z,19.70
2017-07-03T07:29:46.909Z,20.70
2017-07-03T07:32:13.296Z,20.90
2017-07-03T07:34:39.500Z,20.60
2017-07-03T07:37:05.686Z,20.90
2017-07-03T07:39:31.878Z,21.50
2017-07-03T07:41:58.069Z,21.80
2017-07-03T07:44:24.252Z,21.90
2017-07-03T07:46:50.478Z,22.20
2017-07-03T07:49:17.417Z,23.40
2017-07-03T07:51:43.612Z,23.40
2017-07-03T07:54:09.823Z,24.10
2017-07-03T07:56:36.019Z,24.60
2017-07-03T07:59:02.949Z,24.00
2017-07-03T08:01:29.866Z,23.60
2017-07-03T08:03:56.075Z,23.50
2017-07-03T08:06:22.305Z,22.80
2017-07-03T08:08:48.483Z,22.20
2017-07-03T08:11:15.385Z,22.90
2017-07-03T08:13:41.558Z,22.90
2017-07-03T08:16:08.471Z,24.80
2017-07-03T08:21:11.171Z,25.20
2017-07-03T08:23:52.276Z,25.20
2017-07-03T08:26:19.220Z,25.20
2017-07-03T08:28:46.127Z,25.10
2017-07-03T08:31:12.303Z,25.10
2017-07-03T08:33:39.267Z,24.90
2017-07-03T08:36:05.468Z,24.90
2017-07-03T08:38:32.395Z,25.30
2017-07-03T08:41:00.468Z,25.50
2017-07-03T08:43:26.720Z,25.40
2017-07-03T08:45:53.680Z,25.60
2017-07-03T08:48:19.831Z,25.60
2017-07-03T08:50:46.010Z,25.60
2017-07-03T08:53:12.243Z,25.70
2017-07-03T08:55:39.135Z,26.20
2017-07-03T08:58:05.318Z,26.20
2017-07-03T09:00:32.310Z,26.60
2017-07-03T09:02:58.561Z,26.50
2017-07-03T09:05:24.753Z,26.80
2017-07-03T09:07:50.970Z,26.90
2017-07-03T09:10:17.175Z,26.30
2017-07-03T09:12:43.370Z,26.10
2017-07-03T09:15:09.621Z,25.80
2017-07-03T09:17:35.805Z,26.00
2017-07-03T09:20:02.014Z,26.00
2017-07-03T09:22:28.202Z,26.30
2017-07-03T09:24:54.387Z,26.30
2017-07-03T09:27:20.593Z,26.30
2017-07-03T09:29:46.820Z,26.10
2017-07-03T09:32:13.748Z,26.30
2017-07-03T09:34:39.969Z,26.40
2017-07-03T09:37:06.170Z,26.50
2017-07-03T09:39:32.350Z,26.20
2017-07-03T09:41:59.271Z,26.20
2017-07-03T09:44:26.335Z,26.10
2017-07-03T09:46:53.281Z,26.50
2017-07-03T09:49:20.223Z,26.80
2017-07-03T09:51:47.400Z,27.10
2017-07-03T09:54:13.655Z,26.90
2017-07-03T09:56:39.869Z,26.90
2017-07-03T09:59:06.065Z,26.90
2017-07-03T10:01:33.010Z,27.10
2017-07-03T10:03:59.968Z,27.20
2017-07-03T10:06:26.176Z,27.40
2017-07-03T10:08:53.134Z,27.10
2017-07-03T10:11:19.288Z,27.10
2017-07-03T10:13:45.482Z,26.80
2017-07-03T10:16:12.453Z,26.80
2017-07-03T10:18:38.649Z,26.80
2017-07-03T10:21:04.831Z,26.90
2017-07-03T10:23:31.003Z,27.30
2017-07-03T10:25:57.157Z,27.40
2017-07-03T10:28:24.119Z,27.30
2017-07-03T10:30:50.313Z,27.30
2017-07-03T10:33:17.251Z,26.30
2017-07-03T10:35:43.470Z,26.20
2017-07-03T10:38:24.579Z,25.50
2017-07-03T10:40:51.524Z,25.70
2017-07-03T10:43:18.580Z,26.20
2017-07-03T10:45:44.765Z,26.20
2017-07-03T10:48:11.102Z,26.40
2017-07-03T10:50:37.243Z,26.10
2017-07-03T10:53:03.427Z,25.30
2017-07-03T10:55:29.601Z,25.80
2017-07-03T10:57:55.871Z,25.90
2017-07-03T11:00:22.102Z,26.40
2017-07-03T11:02:48.332Z,26.30
2017-07-03T11:05:14.682Z,27.00
2017-07-03T11:07:40.855Z,26.90
2017-07-03T11:10:08.297Z,26.00
2017-07-03T11:12:35.094Z,25.20
2017-07-03T11:15:01.350Z,24.80
2017-07-03T11:17:27.858Z,25.10
2017-07-03T11:19:54.040Z,25.70
2017-07-03T11:22:20.286Z,26.30
2017-07-03T11:24:46.461Z,26.40
2017-07-03T11:27:12.680Z,27.90
2017-07-03T11:29:39.055Z,28.60
2017-07-03T11:32:05.242Z,28.40
2017-07-03T11:34:31.471Z,28.60
2017-07-03T11:36:57.636Z,28.60
2017-07-03T11:39:23.814Z,27.30
2017-07-03T11:41:49.999Z,25.90
2017-07-03T11:44:16.170Z,25.90
2017-07-03T11:46:42.324Z,25.40
2017-07-03T11:49:08.573Z,25.00
2017-07-03T11:51:34.821Z,25.80
2017-07-03T11:54:02.019Z,26.10
2017-07-03T11:56:28.187Z,26.10
2017-07-03T11:58:54.411Z,26.60
2017-07-03T12:01:20.598Z,26.50
2017-07-03T12:03:46.751Z,26.20
2017-07-03T12:06:13.161Z,25.80
2017-07-03T12:08:39.389Z,25.70
2017-07-03T12:11:05.619Z,25.60
2017-07-03T12:13:31.975Z,25.60
2017-07-03T12:15:58.227Z,22.90
2017-07-03T12:18:24.600Z,25.90
2017-07-03T12:20:50.823Z,26.30
2017-07-03T12:23:17.020Z,26.20
2017-07-03T12:25:43.240Z,25.90
2017-07-03T12:28:10.262Z,25.90
2017-07-03T12:30:36.717Z,26.20
2017-07-03T12:33:04.214Z,26.00
2017-07-03T12:35:30.427Z,26.80
2017-07-03T12:37:57.679Z,26.10
2017-07-03T12:40:24.683Z,25.60
2017-07-03T12:42:50.983Z,25.20
2017-07-03T12:45:17.295Z,24.90
2017-07-03T12:47:44.222Z,25.20
2017-07-03T12:50:10.452Z,25.50
2017-07-03T12:52:37.850Z,26.00
2017-07-03T12:55:05.387Z,26.30
2017-07-03T12:57:32.555Z,27.30
2017-07-03T12:59:58.942Z,26.50
2017-07-03T13:02:25.201Z,25.80
2017-07-03T13:04:52.160Z,25.80
2017-07-03T13:07:18.322Z,25.80
2017-07-03T13:09:44.641Z,26.10
2017-07-03T13:12:10.959Z,26.10
2017-07-03T13:14:37.141Z,26.10
2017-07-03T13:17:04.099Z,25.90
2017-07-03T13:19:31.300Z,26.20
2017-07-03T13:21:57.523Z,26.00
2017-07-03T13:24:24.923Z,26.10
2017-07-03T13:26:51.123Z,26.00
2017-07-03T13:29:17.399Z,26.20
2017-07-03T13:31:44.391Z,26.30
2017-07-03T13:34:10.771Z,26.60
2017-07-03T13:36:40.137Z,26.30
2017-07-03T13:39:07.456Z,27.30
2017-07-03T13:41:33.626Z,27.20
2017-07-03T13:43:59.819Z,25.70
2017-07-03T13:46:26.008Z,25.30
2017-07-03T13:48:52.170Z,24.90
2017-07-03T13:51:18.411Z,24.70
2017-07-03T13:53:44.868Z,24.70
2017-07-03T13:56:11.118Z,24.80
2017-07-03T13:58:37.303Z,25.10
2017-07-03T14:01:03.480Z,25.10
2017-07-03T14:03:29.672Z,25.00
2017-07-03T14:05:55.851Z,25.00
2017-07-03T14:08:22.794Z,25.20
2017-07-03T14:10:49.839Z,25.30
2017-07-03T14:13:16.779Z,25.20
2017-07-03T14:15:42.998Z,25.20
2017-07-03T14:18:09.154Z,24.90
2017-07-03T14:20:36.078Z,24.80
2017-07-03T14:23:02.260Z,24.80
2017-07-03T14:25:28.475Z,25.00
2017-07-03T14:27:54.643Z,25.30
2017-07-03T14:30:20.846Z,25.40
2017-07-03T14:32:47.032Z,25.30
2017-07-03T14:35:13.204Z,25.00
2017-07-03T14:37:39.407Z,25.00
2017-07-03T14:40:05.587Z,24.90
2017-07-03T14:42:31.800Z,24.80
2017-07-03T14:44:57.969Z,24.70
2017-07-03T14:47:24.880Z,24.60
2017-07-03T14:49:51.094Z,24.70
2017-07-03T14:52:17.259Z,24.80
2017-07-03T14:54:43.483Z,24.90
2017-07-03T14:57:09.677Z,25.30
2017-07-03T14:59:35.855Z,24.90
2017-07-03T15:02:02.006Z,24.40
2017-07-03T15:04:28.167Z,24.30
2017-07-03T15:06:54.321Z,24.30
2017-07-03T15:09:20.525Z,24.40
2017-07-03T15:11:46.727Z,24.40
2017-07-03T15:14:12.902Z,24.40
2017-07-03T15:16:39.123Z,24.50
2017-07-03T15:19:05.366Z,24.30
2017-07-03T15:21:31.547Z,24.10
2017-07-03T15:23:57.701Z,24.50
2017-07-03T15:26:23.911Z,24.00
2017-07-03T15:28:50.073Z,24.00
2017-07-03T15:31:16.213Z,24.10
2017-07-03T15:33:42.415Z,24.10
2017-07-03T15:36:08.952Z,24.10
2017-07-03T15:38:35.137Z,24.10
2017-07-03T15:41:01.351Z,24.10
2017-07-03T15:43:27.533Z,24.20
2017-07-03T15:45:53.739Z,24.10
2017-07-03T15:48:19.905Z,24.20
2017-07-03T15:50:46.055Z,24.00
2017-07-03T15:53:12.987Z,24.00
2017-07-03T15:55:39.154Z,24.00
2017-07-03T15:58:05.311Z,24.00
2017-07-03T16:00:31.519Z,24.10
2017-07-03T16:02:57.696Z,24.10
2017-07-03T16:05:23.896Z,24.10
2017-07-03T16:07:50.094Z,24.00
2017-07-03T16:10:31.247Z,24.00
2017-07-03T16:12:58.159Z,23.80
2017-07-03T16:15:24.359Z,23.80
2017-07-03T16:17:50.601Z,23.70
2017-07-03T16:20:16.811Z,24.20
2017-07-03T16:22:43.028Z,23.80
2017-07-03T16:25:09.193Z,23.80
2017-07-03T16:27:35.393Z,23.80
2017-07-03T16:30:01.617Z,23.90
2017-07-03T16:32:27.774Z,23.90
2017-07-03T16:34:53.979Z,23.80
2017-07-03T16:37:20.220Z,23.80
2017-07-03T16:39:46.543Z,23.80
2017-07-03T16:42:12.760Z,23.70
2017-07-03T16:44:38.986Z,23.80
2017-07-03T16:47:05.215Z,23.90
2017-07-03T16:49:31.428Z,23.80
2017-07-03T16:51:58.362Z,23.80
2017-07-03T16:54:24.626Z,23.80
2017-07-03T16:56:50.891Z,23.80
2017-07-03T16:59:17.094Z,23.70
2017-07-03T17:01:43.302Z,23.70
2017-07-03T17:04:10.257Z,23.70
2017-07-03T17:06:36.478Z,23.70
2017-07-03T17:09:02.741Z,23.70
2017-07-03T17:11:28.902Z,23.60
2017-07-03T17:13:55.107Z,23.70
2017-07-03T17:16:21.306Z,23.60
2017-07-03T17:18:47.494Z,23.50
2017-07-03T17:21:13.678Z,23.50
2017-07-03T17:23:39.845Z,23.50
2017-07-03T17:26:05.998Z,23.40
2017-07-03T17:28:32.220Z,23.40
2017-07-03T17:30:59.119Z,23.40
2017-07-03T17:33:25.342Z,23.40
2017-07-03T17:35:51.496Z,23.40
2017-07-03T17:38:17.683Z,23.50
2017-07-03T17:40:43.941Z,23.50
2017-07-03T17:43:10.110Z,23.50
2017-07-03T17:45:37.036Z,23.50
2017-07-03T17:48:03.219Z,23.40
2017-07-03T17:50:29.418Z,23.40
2017-07-03T17:52:55.619Z,23.40
2017-07-03T17:55:21.799Z,23.40
2017-07-03T17:57:48.023Z,23.50
2017-07-03T18:00:14.203Z,23.50
2017-07-03T18:02:40.424Z,23.50
2017-07-03T18:05:06.602Z,23.50
2017-07-03T18:07:32.773Z,23.50
2017-07-03T18:09:58.937Z,23.50
2017-07-03T18:12:25.863Z,23.40
2017-07-03T18:14:52.039Z,23.40
2017-07-03T18:17:18.246Z,23.40
2017-07-03T18:19:44.416Z,23.30
2017-07-03T18:22:10.685Z,23.20
2017-07-03T18:24:37.691Z,23.20
2017-07-03T18:27:03.894Z,23.20
2017-07-03T18:29:30.092Z,23.20
2017-07-03T18:31:57.091Z,23.10
2017-07-03T18:34:23.331Z,23.10
2017-07-03T18:36:49.553Z,23.10
2017-07-03T18:39:15.759Z,23.10
2017-07-03T18:41:41.981Z,23.00
2017-07-03T18:44:08.191Z,23.00
2017-07-03T18:46:35.111Z,22.90
2017-07-03T18:49:01.304Z,22.90
2017-07-03T18:51:27.502Z,22.90
2017-07-03T18:53:53.688Z,22.80
2017-07-03T18:56:19.857Z,22.80
2017-07-03T18:58:46.100Z,22.70
2017-07-03T19:01:12.290Z,22.70
2017-07-03T19:03:38.533Z,22.70
2017-07-03T19:06:05.522Z,22.60
2017-07-03T19:08:31.707Z,22.60
2017-07-03T19:10:58.667Z,22.50
2017-07-03T19:13:24.832Z,22.50
2017-07-03T19:15:51.048Z,22.50
2017-07-03T19:18:20.765Z,22.40
2017-07-03T19:20:54.079Z,22.40
2017-07-03T19:23:20.277Z,22.30
2017-07-03T19:25:46.507Z,22.30
2017-07-03T19:28:13.105Z,22.20
2017-07-03T19:30:40.067Z,22.20
2017-07-03T19:33:06.270Z,22.20
2017-07-03T19:35:32.480Z,22.10
2017-07-03T19:41:29.381Z,22.00
2017-07-03T19:43:56.309Z,21.90
2017-07-03T19:46:22.501Z,22.40
2017-07-03T19:48:48.692Z,21.80
2017-07-03T19:51:15.631Z,21.80
2017-07-03T19:53:42.594Z,21.70
2017-07-03T19:56:08.790Z,21.80
2017-07-03T19:58:35.000Z,21.90
2017-07-03T20:01:01.352Z,21.60
2017-07-03T20:03:27.592Z,21.60
2017-07-03T20:05:54.536Z,21.60
2017-07-03T20:08:21.458Z,21.60
2017-07-03T20:10:47.682Z,21.60
2017-07-03T20:13:13.848Z,21.60
2017-07-03T20:15:40.813Z,21.50
2017-07-03T20:18:07.065Z,21.50
2017-07-03T20:20:33.246Z,21.50
2017-07-03T20:22:59.457Z,21.40
2017-07-03T20:25:25.637Z,21.30
2017-07-03T20:27:51.783Z,21.20
2017-07-03T20:30:18.017Z,21.10
2017-07-03T20:32:44.189Z,21.10
2017-07-03T20:35:11.088Z,21.00
2017-07-03T20:37:37.308Z,21.00
2017-07-03T20:40:03.538Z,20.90
2017-07-03T20:42:29.818Z,20.90
2017-07-03T20:44:56.731Z,20.90
2017-07-03T20:47:22.956Z,20.90
2017-07-03T20:49:49.432Z,20.80
2017-07-03T20:52:15.649Z,20.80
2017-07-03T20:54:41.881Z,20.70
2017-07-03T20:57:08.835Z,20.70
2017-07-03T20:59:35.764Z,20.60
2017-07-03T21:02:01.954Z,20.60
2017-07-03T21:04:28.141Z,20.60
2017-07-03T21:06:55.109Z,20.50
2017-07-03T21:09:21.328Z,20.50
2017-07-03T21:11:47.564Z,20.50
2017-07-03T21:14:13.957Z,20.50
2017-07-03T21:16:40.912Z,20.40
2017-07-03T21:19:07.988Z,20.40
2017-07-03T21:21:34.236Z,20.40
2017-07-03T21:24:00.399Z,20.40
2017-07-03T21:26:27.023Z,20.30
2017-07-03T21:28:54.327Z,20.50
2017-07-03T21:31:20.524Z,20.30
2017-07-03T21:33:46.929Z,20.30
2017-07-03T21:36:13.624Z,20.20
2017-07-03T21:38:39.827Z,20.30
2017-07-03T21:41:06.276Z,20.20
2017-07-03T21:43:33.235Z,20.20
2017-07-03T21:46:00.171Z,20.20
2017-07-03T21:48:27.132Z,20.20
2017-07-03T21:50:53.303Z,20.20
2017-07-03T21:53:19.681Z,20.30
2017-07-03T21:55:46.075Z,20.50
2017-07-03T21:58:13.060Z,20.20
2017-07-03T22:00:40.028Z,20.20
2017-07-03T22:03:06.324Z,20.20
2017-07-03T22:05:32.495Z,20.20
2017-07-03T22:07:59.706Z,20.20
2017-07-03T22:10:25.948Z,20.10
2017-07-03T22:12:52.111Z,20.10
2017-07-03T22:15:18.651Z,20.10
2017-07-03T22:17:44.827Z,20.10
2017-07-03T22:20:11.231Z,20.10
2017-07-03T22:22:38.855Z,20.00
2017-07-03T22:25:05.080Z,20.00
2017-07-03T22:27:31.259Z,20.00
2017-07-03T22:29:57.450Z,19.90
2017-07-03T22:32:23.843Z,19.90
2017-07-03T22:34:50.795Z,19.70
2017-07-03T22:37:17.991Z,19.70
2017-07-03T22:39:44.179Z,19.70
2017-07-03T22:42:10.527Z,19.70
2017-07-03T22:44:36.834Z,19.70
2017-07-03T22:47:03.867Z,19.70
2017-07-03T22:49:30.284Z,19.70
2017-07-03T22:51:56.482Z,19.80
2017-07-03T22:54:22.636Z,19.80
2017-07-03T22:56:49.190Z,19.70
2017-07-03T22:59:15.381Z,19.80
2017-07-03T23:01:41.572Z,19.70
2017-07-03T23:04:08.500Z,19.70
2017-07-03T23:06:35.444Z,19.60
2017-07-03T23:09:01.671Z,19.60
2017-07-03T23:11:27.876Z,19.60
2017-07-03T23:13:54.187Z,19.60
2017-07-03T23:16:23.493Z,19.60
2017-07-03T23:18:49.716Z,19.60
2017-07-03T23:21:16.156Z,19.60
2017-07-03T23:23:42.383Z,19.70
2017-07-03T23:26:09.018Z,19.60
2017-07-03T23:28:35.228Z,19.50
2017-07-03T23:31:01.832Z,19.60
2017-07-03T23:33:29.843Z,19.70
2017-07-03T23:35:56.074Z,19.70
2017-07-03T23:38:22.639Z,19.70
2017-07-03T23:40:48.836Z,19.70
2017-07-03T23:43:15.123Z,19.60
2017-07-03T23:45:41.355Z,19.60
2017-07-03T23:48:07.525Z,19.70
2017-07-03T23:50:33.693Z,19.60
2017-07-03T23:52:59.881Z,19.60
2017-07-03T23:55:26.094Z,19.60
2017-07-03T23:57:52.299Z,19.50
